createdAt,value
2016-08-18T00:00:31.046Z,82.54
2016-08-18T00:01:31.034Z,82.54
2016-08-18T00:02:31.734Z,82.64
2016-08-18T00:03:31.722Z,82.64
2016-08-18T00:04:31.713Z,82.74
2016-08-18T00:05:30.996Z,83.12
2016-08-18T00:06:30.988Z,83.5
2016-08-18T00:07:30.977Z,84.55
2016-08-18T00:08:31.682Z,84.94
2016-08-18T00:09:30.958Z,84.65
2016-08-18T00:10:31.662Z,84.46
2016-08-18T00:11:30.940Z,84.65
2016-08-18T00:12:31.637Z,84.36
2016-08-18T00:13:30.924Z,84.94
2016-08-18T00:14:30.916Z,84.84
2016-08-18T00:15:31.606Z,85.22
2016-08-18T00:16:30.890Z,85.32
2016-08-18T00:17:31.587Z,84.84
2016-08-18T00:18:31.578Z,84.84
2016-08-18T00:19:30.860Z,85.22
2016-08-18T00:20:31.560Z,84.61
2016-08-18T00:21:30.842Z,84.84
2016-08-18T00:22:30.830Z,84.75
2016-08-18T00:23:31.532Z,84.36
2016-08-18T00:24:31.521Z,85.03
2016-08-18T00:25:30.807Z,84.84
2016-08-18T00:26:30.795Z,84.65
2016-08-18T00:27:30.786Z,85.03
2016-08-18T00:28:30.777Z,85.18
2016-08-18T00:29:30.765Z,84.99
2016-08-18T00:30:30.755Z,85.32
2016-08-18T00:31:30.745Z,85.18
2016-08-18T00:32:31.441Z,85.61
2016-08-18T00:33:31.433Z,85.47
2016-08-18T00:34:30.712Z,85.18
2016-08-18T00:35:30.704Z,84.99
2016-08-18T00:36:30.694Z,84.84
2016-08-18T00:37:30.684Z,84.32
2016-08-18T00:38:30.673Z,84.32
2016-08-18T00:39:30.665Z,84.99
2016-08-18T00:40:30.658Z,84.42
2016-08-18T00:41:31.368Z,84.42
2016-08-18T00:42:30.634Z,84.99
2016-08-18T00:43:30.628Z,85.18
2016-08-18T00:44:30.613Z,85.66
2016-08-18T00:45:30.606Z,85.18
2016-08-18T00:46:31.303Z,84.99
2016-08-18T00:47:30.587Z,85.18
2016-08-18T00:48:30.576Z,85.94
2016-08-18T00:49:31.275Z,85.75
2016-08-18T00:50:30.556Z,85.75
2016-08-18T00:51:31.252Z,85.94
2016-08-18T00:52:30.536Z,86.23
2016-08-18T00:54:02.600Z,85.75
2016-08-18T00:54:30.514Z,86.8
2016-08-18T00:55:31.216Z,86.61
2016-08-18T00:56:30.497Z,86.33
2016-08-18T00:57:30.482Z,86.71
2016-08-18T00:58:30.473Z,86.43
2016-08-18T00:59:30.460Z,87.48
2016-08-18T01:00:30.452Z,88.39
2016-08-18T01:01:31.149Z,87.82
2016-08-18T01:02:30.433Z,87.76
2016-08-18T01:03:31.131Z,87.86
2016-08-18T01:04:31.121Z,87.76
2016-08-18T01:05:30.404Z,87.82
2016-08-18T01:26:49.423Z,89.15
2016-08-18T01:27:15.013Z,89.01
2016-08-18T01:28:14.302Z,89.25
2016-08-18T01:29:14.994Z,89.68
2016-08-18T01:30:14.277Z,89.59
2016-08-18T01:31:14.264Z,89.87
2016-08-18T01:32:14.959Z,89.87
2016-08-18T01:33:14.949Z,89.97
2016-08-18T01:34:14.938Z,90.35
2016-08-18T02:10:50.024Z,92.45
2016-08-18T02:11:49.297Z,92.83
2016-08-18T02:12:49.992Z,92.45
2016-08-18T02:13:49.294Z,92.45
2016-08-18T02:14:49.263Z,92.41
2016-08-18T02:15:49.254Z,92.36
2016-08-18T02:16:49.247Z,92.41
2016-08-18T02:17:49.233Z,92.36
2016-08-18T02:18:49.219Z,92.36
2016-08-18T02:19:49.918Z,92.64
2016-08-18T02:20:49.197Z,92.31
2016-08-18T02:21:49.900Z,92.55
2016-08-18T02:22:49.885Z,92.26
2016-08-18T02:23:49.170Z,92.5
2016-08-18T02:24:49.862Z,92.26
2016-08-18T02:25:49.856Z,92.21
2016-08-18T02:26:49.852Z,92.69
2016-08-18T02:27:49.121Z,92.6
2016-08-18T02:28:49.115Z,92.5
2016-08-18T02:29:49.104Z,92.31
2016-08-18T02:30:49.100Z,92.6
2016-08-18T02:31:49.082Z,92.31
2016-08-18T02:32:49.793Z,92.31
2016-08-18T02:33:49.772Z,92.12
2016-08-18T02:34:49.051Z,92.79
2016-08-18T02:35:49.036Z,93.36
2016-08-18T02:36:49.739Z,92.97
2016-08-18T02:37:49.014Z,93.55
2016-08-18T02:38:49.713Z,93.55
2016-08-18T02:39:48.995Z,93.65
2016-08-18T02:40:48.985Z,94.12
2016-08-18T02:41:48.977Z,93.55
2016-08-18T02:42:49.672Z,93.36
2016-08-18T02:43:48.952Z,93.26
2016-08-18T02:44:48.943Z,93.26
2016-08-18T02:45:48.931Z,93.84
2016-08-18T02:46:48.920Z,93.74
2016-08-18T02:47:49.614Z,93.84
2016-08-18T02:48:49.606Z,94.12
2016-08-18T02:49:48.886Z,93.74
2016-08-18T02:50:48.877Z,93.79
2016-08-18T02:51:48.865Z,94.03
2016-08-18T02:52:49.563Z,93.41
2016-08-18T02:53:49.557Z,93.55
2016-08-18T02:54:49.037Z,93.41
2016-08-18T02:55:48.820Z,93.46
2016-08-18T02:56:49.522Z,93.79
2016-08-18T02:57:48.801Z,93.88
2016-08-18T02:58:49.503Z,94.17
2016-08-18T02:59:49.486Z,94.07
2016-08-18T03:00:48.768Z,94.27
2016-08-18T03:01:48.759Z,93.98
2016-08-18T03:02:48.747Z,94.27
2016-08-18T03:03:48.737Z,94.27
2016-08-18T03:04:48.726Z,94.27
2016-08-18T03:05:48.713Z,94.56
2016-08-18T03:06:49.418Z,94.74
2016-08-18T03:07:48.693Z,95.22
2016-08-18T03:08:48.680Z,95.03
2016-08-18T03:09:48.671Z,95.61
2016-08-18T03:10:48.679Z,95.89
2016-08-18T03:11:48.647Z,96.27
2016-08-18T03:12:49.346Z,96.66
2016-08-18T03:13:48.623Z,96.66
2016-08-18T03:14:48.618Z,96.66
2016-08-18T03:15:48.602Z,97.32
2016-08-18T03:16:48.593Z,96.84
2016-08-18T03:17:49.286Z,96.94
2016-08-18T03:18:48.571Z,96.66
2016-08-18T03:19:48.560Z,96.66
2016-08-18T03:20:49.259Z,96.56
2016-08-18T03:21:49.247Z,96.27
2016-08-18T03:22:48.527Z,96.66
2016-08-18T03:33:07.207Z,97.13
2016-08-18T03:33:18.123Z,97.03
2016-08-18T03:34:18.089Z,97.51
2016-08-18T03:35:18.086Z,97.32
2016-08-18T03:36:18.072Z,97.51
2016-08-18T03:37:18.063Z,96.84
2016-08-18T03:38:18.040Z,97.32
2016-08-18T03:39:18.040Z,96.94
2016-08-18T03:40:18.223Z,96.84
2016-08-18T03:41:18.080Z,97.22
2016-08-18T03:42:18.004Z,97.71
2016-08-18T03:43:17.989Z,97.42
2016-08-18T03:46:03.673Z,97.42
2016-08-18T03:47:02.958Z,97.03
2016-08-18T03:48:02.945Z,97.13
2016-08-18T03:49:02.953Z,97.37
2016-08-18T03:50:02.921Z,97.56
2016-08-18T03:51:02.919Z,97.08
2016-08-18T03:52:03.609Z,97.17
2016-08-18T03:53:02.889Z,97.17
2016-08-18T03:54:03.588Z,97.08
2016-08-18T03:55:03.574Z,97.27
2016-08-18T03:56:02.857Z,97.75
2016-08-18T03:57:02.858Z,97.66
2016-08-18T03:58:02.833Z,97.85
2016-08-18T03:59:02.823Z,97.85
2016-08-18T04:00:03.522Z,98.03
2016-08-18T04:01:03.509Z,97.37
2016-08-18T04:02:03.494Z,97.08
2016-08-18T04:03:03.485Z,97.46
2016-08-18T04:04:02.767Z,97.17
2016-08-18T04:05:03.464Z,97.85
2016-08-18T04:06:02.747Z,98.22
2016-08-18T04:07:02.733Z,97.56
2016-08-18T04:08:03.432Z,97.27
2016-08-18T04:09:03.416Z,97.56
2016-08-18T04:10:02.701Z,97.17
2016-08-18T04:11:03.393Z,97.08
2016-08-18T04:12:03.382Z,96.89
2016-08-18T04:13:03.369Z,96.89
2016-08-18T04:14:03.359Z,97.94
2016-08-18T04:15:03.347Z,97.85
2016-08-18T04:16:03.338Z,97.85
2016-08-18T04:17:03.325Z,98.13
2016-08-18T04:18:03.314Z,98.7
2016-08-18T04:19:02.597Z,98.42
2016-08-18T04:20:03.294Z,99.66
2016-08-18T04:21:02.572Z,99.08
2016-08-18T04:22:03.273Z,99.27
2016-08-18T04:23:02.550Z,99.08
2016-08-18T04:24:02.539Z,99.46
2016-08-18T04:25:03.234Z,99.56
2016-08-18T04:26:03.222Z,99.37
2016-08-18T04:27:02.499Z,99.18
2016-08-18T04:28:02.492Z,99.46
2016-08-18T04:29:03.187Z,99.27
2016-08-18T04:30:02.470Z,99.46
2016-08-18T04:31:03.168Z,99.46
2016-08-18T04:32:02.449Z,99.46
2016-08-18T04:33:02.434Z,99.46
2016-08-18T04:34:03.130Z,98.8
2016-08-18T04:35:03.121Z,98.99
2016-08-18T04:36:02.398Z,99.08
2016-08-18T04:37:02.393Z,98.99
2016-08-18T04:38:03.105Z,98.61
2016-08-18T04:39:02.364Z,99.08
2016-08-18T04:40:02.354Z,98.9
2016-08-18T04:41:02.341Z,98.99
2016-08-18T04:42:03.037Z,98.51
2016-08-18T04:43:02.333Z,98.8
2016-08-18T04:44:03.016Z,98.9
2016-08-18T04:45:02.296Z,98.9
2016-08-18T04:46:02.990Z,98.8
2016-08-18T04:47:02.273Z,99.56
2016-08-18T04:48:02.976Z,99.08
2016-08-18T04:49:02.249Z,99.56
2016-08-18T04:50:02.253Z,98.99
2016-08-18T04:51:02.229Z,99.46
2016-08-18T04:52:02.217Z,98.8
2016-08-18T04:53:02.205Z,99.46
2016-08-18T04:54:02.200Z,99.46
2016-08-18T04:55:02.181Z,99.99
2016-08-18T04:56:02.170Z,99.99
2016-08-18T04:57:02.160Z,99.99
2016-08-18T04:58:02.149Z,99.99
2016-08-18T04:59:02.137Z,99.99
2016-08-18T05:00:02.130Z,99.85
2016-08-18T05:01:02.819Z,99.99
2016-08-18T05:02:02.104Z,99.56
2016-08-18T05:03:02.092Z,99.85
2016-08-18T05:04:02.786Z,99.46
2016-08-18T05:05:02.073Z,99.75
2016-08-18T05:06:02.062Z,99.99
2016-08-18T05:07:02.045Z,99.99
2016-08-18T05:08:02.039Z,99.99
2016-08-18T05:09:02.730Z,99.99
2016-08-18T05:10:02.721Z,99.99
2016-08-18T05:11:01.999Z,99.99
2016-08-18T05:12:02.732Z,99.99
2016-08-18T05:13:02.689Z,99.99
2016-08-18T05:14:01.966Z,99.99
2016-08-18T05:15:01.956Z,99.99
2016-08-18T05:16:01.943Z,99.99
2016-08-18T05:17:02.640Z,99.99
2016-08-18T05:18:01.930Z,99.99
2016-08-18T05:19:02.615Z,99.99
2016-08-18T05:20:02.602Z,99.99
2016-08-18T05:21:02.593Z,99.99
2016-08-18T05:22:01.870Z,99.99
2016-08-18T05:23:01.866Z,99.99
2016-08-18T05:24:02.557Z,99.99
2016-08-18T05:25:02.547Z,99.99
2016-08-18T05:26:02.544Z,99.99
2016-08-18T05:27:01.819Z,99.99
2016-08-18T05:28:02.512Z,99.99
2016-08-18T05:29:01.795Z,99.99
2016-08-18T05:30:01.783Z,99.99
2016-08-18T05:31:01.782Z,99.99
2016-08-18T05:32:01.761Z,99.99
2016-08-18T05:33:01.753Z,99.99
2016-08-18T05:34:02.449Z,99.99
2016-08-18T05:35:01.729Z,99.99
2016-08-18T05:36:01.717Z,99.99
2016-08-18T05:37:02.420Z,99.99
2016-08-18T05:38:01.692Z,99.99
2016-08-18T05:39:02.392Z,99.99
2016-08-18T05:40:02.384Z,99.99
2016-08-18T05:41:01.671Z,99.99
2016-08-18T05:42:02.358Z,99.99
2016-08-18T05:43:01.638Z,99.99
2016-08-18T05:44:01.627Z,99.99
2016-08-18T05:45:01.617Z,99.99
2016-08-18T05:46:01.607Z,99.99
2016-08-18T05:47:02.305Z,99.99
2016-08-18T05:48:01.587Z,99.99
2016-08-18T05:49:01.569Z,99.99
2016-08-18T05:50:01.570Z,99.99
2016-08-18T05:51:02.269Z,99.99
2016-08-18T05:52:02.400Z,99.99
2016-08-18T05:53:02.234Z,99.99
2016-08-18T05:54:02.225Z,99.99
2016-08-18T05:55:02.214Z,99.85
2016-08-18T05:56:01.506Z,99.66
2016-08-18T05:57:01.490Z,99.66
2016-08-18T05:58:01.476Z,99.95
2016-08-18T05:59:02.170Z,99.9
2016-08-18T06:00:01.450Z,99.8
2016-08-18T06:01:02.151Z,99.33
2016-08-18T06:02:01.428Z,99.85
2016-08-18T06:03:01.420Z,99.8
2016-08-18T06:04:01.409Z,99.99
2016-08-18T06:05:01.396Z,99.85
2016-08-18T06:06:01.386Z,99.14
2016-08-18T06:07:01.375Z,99.8
2016-08-18T06:08:02.073Z,99.43
2016-08-18T06:09:01.599Z,99.71
2016-08-18T06:10:03.024Z,99.62
2016-08-18T06:11:01.335Z,99.9
2016-08-18T06:12:02.029Z,99.14
2016-08-18T06:13:02.024Z,99.43
2016-08-18T06:14:02.008Z,99.8
2016-08-18T06:15:01.288Z,99.23
2016-08-18T06:16:01.280Z,99.23
2016-08-18T06:17:01.974Z,98.85
2016-08-18T06:18:01.420Z,98.08
2016-08-18T06:19:01.957Z,98.42
2016-08-18T06:20:01.962Z,98.23
2016-08-18T06:21:01.943Z,98.42
2016-08-18T06:22:01.231Z,97.47
2016-08-18T06:23:01.233Z,97.85
2016-08-18T06:24:01.903Z,97.85
2016-08-18T06:25:01.902Z,97.75
2016-08-18T06:26:01.883Z,97.47
2016-08-18T06:27:01.873Z,97.56
2016-08-18T06:28:01.154Z,97.08
2016-08-18T06:29:01.142Z,97.18
2016-08-18T06:30:01.132Z,97.75
2016-08-18T06:31:01.122Z,97.85
2016-08-18T06:32:01.111Z,96.13
2016-08-18T06:33:01.810Z,96.42
2016-08-18T06:34:01.800Z,96.61
2016-08-18T06:35:01.078Z,96.03
2016-08-18T06:36:01.082Z,96.03
2016-08-18T06:37:01.772Z,96.37
2016-08-18T06:38:01.755Z,96.27
2016-08-18T06:39:01.040Z,96.47
2016-08-18T06:40:01.030Z,95.89
2016-08-18T06:41:01.730Z,96.08
2016-08-18T06:42:01.009Z,96.18
2016-08-18T06:43:01.704Z,95.61
2016-08-18T06:44:01.723Z,95.61
2016-08-18T06:45:01.692Z,95.51
2016-08-18T06:46:01.028Z,96.47
2016-08-18T06:47:01.662Z,95.89
2016-08-18T06:48:00.948Z,96.47
2016-08-18T06:49:01.648Z,96.27
2016-08-18T06:50:00.927Z,96.08
2016-08-18T06:51:01.624Z,96.18
2016-08-18T06:52:01.662Z,95.94
2016-08-18T06:53:00.903Z,96.13
2016-08-18T06:54:00.891Z,94.79
2016-08-18T06:55:01.588Z,94.6
2016-08-18T06:56:01.577Z,94.5
2016-08-18T06:57:00.867Z,94.6
2016-08-18T06:58:00.850Z,94.02
2016-08-18T06:59:01.547Z,94.02
2016-08-18T07:00:01.533Z,94.26
2016-08-18T07:01:01.530Z,93.64
2016-08-18T07:02:00.807Z,93.93
2016-08-18T07:03:00.803Z,94.02
2016-08-18T07:04:01.496Z,94.84
2016-08-18T07:05:01.685Z,94.65
2016-08-18T07:06:00.775Z,94.74
2016-08-18T07:07:01.469Z,94.45
2016-08-18T07:08:00.751Z,93.69
2016-08-18T07:09:00.738Z,94.36
2016-08-18T07:10:01.787Z,93.88
2016-08-18T07:11:00.721Z,93.88
2016-08-18T07:12:00.710Z,93.4
2016-08-18T07:13:01.408Z,93.59
2016-08-18T07:14:00.990Z,92.25
2016-08-18T07:15:01.401Z,92.44
2016-08-18T07:16:01.381Z,92.44
2016-08-18T07:17:01.371Z,92.54
2016-08-18T07:18:00.654Z,92.44
2016-08-18T07:19:01.350Z,92.16
2016-08-18T07:20:00.633Z,91.05
2016-08-18T07:21:00.626Z,91.25
2016-08-18T07:22:00.615Z,90.58
2016-08-18T07:23:00.608Z,90.67
2016-08-18T07:24:01.314Z,90.09
2016-08-18T07:25:00.590Z,90.09
2016-08-18T07:26:01.284Z,89.52
2016-08-18T07:27:01.276Z,89.52
2016-08-18T07:28:00.562Z,89.33
2016-08-18T07:29:00.555Z,90.19
2016-08-18T07:30:01.248Z,90.19
2016-08-18T07:31:00.530Z,90.09
2016-08-18T07:32:00.523Z,88.18
2016-08-18T07:33:01.218Z,87.61
2016-08-18T07:34:00.504Z,87.94
2016-08-18T07:35:01.205Z,88.32
2016-08-18T07:36:01.201Z,89.47
2016-08-18T07:37:01.190Z,88.13
2016-08-18T07:38:00.468Z,88.03
2016-08-18T07:39:01.164Z,88.42
2016-08-18T07:40:01.157Z,88.42
2016-08-18T07:41:01.154Z,88.42
2016-08-18T07:42:00.437Z,87.37
2016-08-18T07:43:01.129Z,87.55
2016-08-18T07:44:01.117Z,86.88
2016-08-18T07:45:01.111Z,87.55
2016-08-18T07:46:00.396Z,87.79
2016-08-18T07:47:00.388Z,88.37
2016-08-18T07:48:01.087Z,87.79
2016-08-18T07:49:00.370Z,87.79
2016-08-18T07:50:00.443Z,86.64
2016-08-18T07:51:01.058Z,86.64
2016-08-18T07:52:01.084Z,86.64
2016-08-18T07:53:01.042Z,86.16
2016-08-18T07:54:01.048Z,84.44
2016-08-18T07:55:00.328Z,85.21
2016-08-18T07:56:01.013Z,85.97
2016-08-18T07:57:00.296Z,83.86
2016-08-18T07:58:00.998Z,83.04
2016-08-18T07:59:01.022Z,82.18
2016-08-18T08:00:00.272Z,82.37
2016-08-18T08:01:00.273Z,82.37
2016-08-18T08:02:00.965Z,83.14
2016-08-18T08:03:00.245Z,83.33
2016-08-18T08:04:00.240Z,81.12
2016-08-18T08:05:00.943Z,80.87
2016-08-18T08:06:00.218Z,79.05
2016-08-18T08:07:00.919Z,80.58
2016-08-18T08:08:00.908Z,82.31
2016-08-18T08:09:00.194Z,82.41
2016-08-18T08:10:00.188Z,81.74
2016-08-18T08:11:00.888Z,81.16
2016-08-18T08:12:00.379Z,81.93
2016-08-18T08:13:00.879Z,80.87
2016-08-18T08:14:00.153Z,80.82
2016-08-18T08:15:00.849Z,80.63
2016-08-18T08:16:00.137Z,80.24
2016-08-18T08:17:00.834Z,79.86
2016-08-18T08:18:00.888Z,79.67
2016-08-18T08:19:00.152Z,78.55
2016-08-18T08:20:00.875Z,74.75
2016-08-18T08:21:00.105Z,70.56
2016-08-18T08:22:00.099Z,65.05
2016-08-18T08:23:00.802Z,60.51
2016-08-18T08:24:00.092Z,57.87
2016-08-18T08:25:00.124Z,56.47
2016-08-18T08:26:00.909Z,56.3
2016-08-18T08:27:00.075Z,54.03
2016-08-18T08:28:00.063Z,53.39
2016-08-18T08:29:00.761Z,51.28
2016-08-18T08:30:00.055Z,49.75
2016-08-18T08:31:00.048Z,46.28
2016-08-18T08:32:00.047Z,44.65
2016-08-18T08:33:00.830Z,45.8
2016-08-18T08:34:00.056Z,47.81
2016-08-18T08:35:00.816Z,49.51
2016-08-18T08:36:00.229Z,49.97
2016-08-18T08:37:00.116Z,49.46
2016-08-18T08:38:00.103Z,49.95
2016-08-18T08:39:00.175Z,51.01
2016-08-18T08:40:00.167Z,51.5
2016-08-18T08:41:00.150Z,50.82
2016-08-18T08:42:00.009Z,48.93
2016-08-18T08:43:00.723Z,47.2
2016-08-18T08:44:00.714Z,47.69
2016-08-18T08:45:00.706Z,48.66
2016-08-18T08:46:00.060Z,49.34
2016-08-18T08:47:00.707Z,50.29
2016-08-18T08:48:00.023Z,49.77
2016-08-18T08:49:00.688Z,50.33
2016-08-18T08:49:59.976Z,51.47
2016-08-18T08:50:59.972Z,51.08
2016-08-18T08:52:00.767Z,52.12
2016-08-18T08:53:00.669Z,52.02
2016-08-18T08:53:59.988Z,51.83
2016-08-18T08:55:00.200Z,51.15
2016-08-18T08:56:00.768Z,51.54
2016-08-18T08:57:00.652Z,51.93
2016-08-18T08:57:59.947Z,51.93
2016-08-18T08:59:00.647Z,52.41
2016-08-18T09:00:00.662Z,52.09
2016-08-18T09:01:01.279Z,54.9
2016-08-18T09:01:59.937Z,55.35
2016-08-18T09:03:00.644Z,54.87
2016-08-18T09:04:00.630Z,56.13
2016-08-18T09:05:00.615Z,54.49
2016-08-18T09:05:59.907Z,55.55
2016-08-18T09:06:59.920Z,55.81
2016-08-18T09:07:59.893Z,56.65
2016-08-18T09:09:00.604Z,58.1
2016-08-18T09:10:00.593Z,57.23
2016-08-18T09:10:59.882Z,57.78
2016-08-18T09:11:59.872Z,57.49
2016-08-18T09:12:59.870Z,56.84
2016-08-18T09:14:00.571Z,57.06
2016-08-18T09:15:00.565Z,56.96
2016-08-18T09:16:00.688Z,55.35
2016-08-18T09:17:00.557Z,54.1
2016-08-18T09:17:59.844Z,56.13
2016-08-18T09:18:59.835Z,56.32
2016-08-18T09:20:00.542Z,56.41
2016-08-18T09:21:00.831Z,56.1
2016-08-18T09:21:59.821Z,56.48
2016-08-18T09:23:00.039Z,57.9
2016-08-18T09:24:00.531Z,59.35
2016-08-18T09:25:00.521Z,59.9
2016-08-18T09:26:00.527Z,59.61
2016-08-18T09:26:59.868Z,60
2016-08-18T09:28:00.577Z,59.13
2016-08-18T09:29:00.511Z,60.38
2016-08-18T09:29:59.788Z,60.1
2016-08-18T09:31:00.502Z,60.06
2016-08-18T09:31:59.773Z,59.9
2016-08-18T09:33:00.991Z,59.97
2016-08-18T09:34:00.483Z,59.48
2016-08-18T09:35:00.539Z,58.55
2016-08-18T09:36:00.518Z,58.17
2016-08-18T09:37:00.527Z,60.19
2016-08-18T09:38:00.535Z,60.38
2016-08-18T09:39:00.976Z,58.94
2016-08-18T09:40:00.444Z,60.1
2016-08-18T09:40:59.731Z,60.19
2016-08-18T09:42:00.444Z,58.42
2016-08-18T09:43:00.498Z,56.88
2016-08-18T09:44:00.428Z,57.2
2016-08-18T09:45:00.420Z,57.1
2016-08-18T09:45:59.772Z,58.26
2016-08-18T09:47:00.408Z,58.26
2016-08-18T09:48:00.400Z,57.07
2016-08-18T09:49:00.395Z,57.49
2016-08-18T09:50:00.392Z,56.91
2016-08-18T09:50:59.718Z,56.24
2016-08-18T09:51:59.878Z,56.79
2016-08-18T09:53:00.384Z,56.43
2016-08-18T09:54:00.567Z,58.55
2016-08-18T09:55:00.366Z,55.08
2016-08-18T09:55:59.927Z,55.46
2016-08-18T09:56:59.658Z,56.14
2016-08-18T09:57:59.631Z,56.62
2016-08-18T09:58:59.622Z,55.46
2016-08-18T09:59:59.826Z,55.76
2016-08-18T10:00:59.617Z,55.56
2016-08-18T10:01:59.613Z,56.33
2016-08-18T10:02:59.667Z,56.91
2016-08-18T10:04:00.305Z,54.69
2016-08-18T10:05:00.701Z,53.73
2016-08-18T10:06:00.293Z,55.08
2016-08-18T10:06:59.578Z,53.95
2016-08-18T10:07:59.575Z,53.17
2016-08-18T10:08:59.566Z,52.69
2016-08-18T10:10:00.267Z,51.73
2016-08-18T10:10:59.558Z,51.44
2016-08-18T10:11:59.557Z,51.92
2016-08-18T10:12:59.800Z,51.92
2016-08-18T10:13:59.547Z,54.14
2016-08-18T10:15:00.240Z,51.05
2016-08-18T10:15:59.527Z,52.89
2016-08-18T10:16:59.521Z,53.2
2016-08-18T10:17:59.515Z,52.43
2016-08-18T10:18:59.513Z,52.72
2016-08-18T10:20:00.625Z,53.2
2016-08-18T10:20:59.490Z,51.46
2016-08-18T10:21:59.482Z,52.94
2016-08-18T10:22:59.474Z,50.59
2016-08-18T10:23:59.470Z,51.46
2016-08-18T10:24:59.462Z,52.72
2016-08-18T10:26:00.172Z,50.98
2016-08-18T10:26:59.460Z,53.03
2016-08-18T10:28:00.164Z,52.36
2016-08-18T10:28:59.442Z,52.07
2016-08-18T10:29:59.445Z,53.23
2016-08-18T10:31:00.145Z,52.72
2016-08-18T10:32:00.136Z,52.62
2016-08-18T10:33:00.130Z,51.75
2016-08-18T10:33:59.417Z,51.07
2016-08-18T10:35:00.122Z,51.29
2016-08-18T10:35:59.405Z,50.71
2016-08-18T10:36:59.399Z,51.49
2016-08-18T10:38:00.103Z,48.81
2016-08-18T10:38:59.390Z,49.77
2016-08-18T10:39:59.390Z,46.51
2016-08-18T10:40:59.381Z,48.44
2016-08-18T10:42:00.184Z,47.62
2016-08-18T10:43:00.132Z,44.84
2016-08-18T10:43:59.371Z,44.78
2016-08-18T10:44:59.370Z,43.82
2016-08-18T10:45:59.372Z,42.29
2016-08-18T10:47:00.071Z,42.02
2016-08-18T10:47:59.362Z,43.27
2016-08-18T10:48:59.358Z,43.18
2016-08-18T10:50:00.063Z,41.06
2016-08-18T10:50:59.355Z,41.16
2016-08-18T10:51:59.362Z,40
2016-08-18T10:52:59.357Z,39.7
2016-08-18T10:53:59.352Z,39.43
2016-08-18T10:54:59.358Z,39.94
2016-08-18T10:56:00.060Z,38.89
2016-08-18T10:57:00.067Z,38.13
2016-08-18T10:57:59.354Z,36.98
2016-08-18T10:58:59.357Z,37.77
2016-08-18T11:00:00.069Z,36.14
2016-08-18T11:00:59.360Z,36.82
2016-08-18T11:01:59.376Z,37.04
2016-08-18T11:02:59.363Z,37.12
2016-08-18T11:03:59.363Z,36.55
2016-08-18T11:04:59.366Z,35.67
2016-08-18T11:05:59.374Z,33.43
2016-08-18T11:06:59.372Z,35.47
2016-08-18T11:07:59.380Z,33.23
2016-08-18T11:08:59.381Z,33.54
2016-08-18T11:10:00.286Z,34.52
2016-08-18T11:10:59.382Z,33.93
2016-08-18T11:11:59.385Z,35.3
2016-08-18T11:12:59.386Z,33.07
2016-08-18T11:13:59.403Z,34.53
2016-08-18T11:15:00.101Z,34.44
2016-08-18T11:15:59.401Z,33.18
2016-08-18T11:17:00.407Z,32.7
2016-08-18T11:17:59.407Z,33.38
2016-08-18T11:19:00.118Z,33.3
2016-08-18T11:19:59.417Z,29.79
2016-08-18T11:20:59.415Z,29.79
2016-08-18T11:21:59.420Z,33.59
2016-08-18T11:23:00.159Z,32.04
2016-08-18T11:23:59.428Z,31.26
2016-08-18T11:25:00.146Z,31.85
2016-08-18T11:26:00.309Z,32.75
2016-08-18T11:26:59.444Z,32.35
2016-08-18T11:28:00.242Z,30.51
2016-08-18T11:29:00.208Z,31.99
2016-08-18T11:30:00.165Z,29.94
2016-08-18T11:30:59.466Z,29.07
2016-08-18T11:31:59.487Z,29.18
2016-08-18T11:32:59.474Z,29.97
2016-08-18T11:34:00.191Z,26.95
2016-08-18T11:35:00.535Z,28.02
2016-08-18T11:36:00.204Z,26.64
2016-08-18T11:36:59.495Z,29.08
2016-08-18T11:37:59.501Z,28.61
2016-08-18T11:38:59.505Z,28.33
2016-08-18T11:40:00.221Z,28.43
2016-08-18T11:41:00.231Z,27.95
2016-08-18T11:42:00.287Z,26.87
2016-08-18T11:43:00.234Z,26.69
2016-08-18T11:43:59.536Z,25.51
2016-08-18T11:44:59.539Z,26.69
2016-08-18T11:46:00.270Z,26.4
2016-08-18T11:47:00.264Z,28.16
2016-08-18T11:47:59.561Z,27.37
2016-08-18T11:49:00.327Z,25.71
2016-08-18T11:49:59.571Z,27.77
2016-08-18T11:50:59.589Z,29.14
2016-08-18T11:52:00.303Z,25.52
2016-08-18T11:52:59.592Z,27.29
2016-08-18T11:53:59.596Z,29.06
2016-08-18T11:55:00.307Z,30.15
2016-08-18T11:55:59.607Z,26.72
2016-08-18T11:57:00.322Z,25.73
2016-08-18T12:12:02.104Z,23.21
2016-08-18T12:13:02.107Z,23.61
2016-08-18T12:14:02.111Z,22.72
2016-08-18T12:15:02.725Z,23.31
2016-08-18T12:16:03.432Z,23.13
2016-08-18T12:17:02.736Z,23.22
2016-08-18T12:18:02.744Z,23.03
2016-08-18T12:19:02.767Z,23.22
2016-08-18T12:20:02.757Z,22.63
2016-08-18T12:21:02.773Z,23.32
2016-08-18T12:22:02.771Z,23.04
2016-08-18T12:23:03.694Z,22.84
2016-08-18T12:24:03.501Z,22.46
2016-08-18T12:25:02.793Z,24.23
2016-08-18T12:26:02.802Z,21.48
2016-08-18T12:27:02.809Z,20.1
2016-08-18T12:28:02.836Z,23.33
2016-08-18T12:29:03.533Z,25.01
2016-08-18T12:30:02.833Z,22.36
2016-08-18T12:31:03.549Z,21.18
2016-08-18T12:32:03.556Z,21.39
2016-08-18T12:33:03.561Z,21.88
2016-08-18T12:34:02.860Z,20.99
2016-08-18T12:35:03.573Z,21.98
2016-08-18T12:36:02.869Z,21.39
2016-08-18T12:37:03.585Z,20.39
2016-08-18T12:38:02.883Z,21.07
2016-08-18T12:39:02.898Z,21.95
2016-08-18T12:40:03.604Z,23.15
2016-08-18T12:41:02.906Z,21.77
2016-08-18T12:42:02.913Z,21.08
2016-08-18T12:43:02.915Z,22.27
2016-08-18T12:44:03.637Z,23.26
2016-08-18T12:45:02.931Z,19.71
2016-08-18T12:46:02.945Z,20.01
2016-08-18T12:47:02.945Z,20.5
2016-08-18T12:48:02.958Z,20.6
2016-08-18T12:49:03.158Z,20.3
2016-08-18T12:50:02.965Z,21.18
2016-08-18T12:51:02.973Z,21.28
2016-08-18T12:52:02.978Z,21.67
2016-08-18T12:53:03.691Z,20.98
2016-08-18T12:54:02.989Z,21.47
2016-08-18T12:55:03.719Z,20.99
2016-08-18T12:56:03.006Z,19.9
2016-08-18T12:57:03.013Z,21.48
2016-08-18T12:58:03.016Z,20.2
2016-08-18T12:59:03.021Z,20.5
2016-08-18T13:00:03.031Z,19.81
2016-08-18T13:01:03.041Z,19.9
2016-08-18T13:02:03.048Z,20.1
2016-08-18T13:03:03.758Z,19.61
2016-08-18T13:04:03.064Z,19.61
2016-08-18T13:05:03.770Z,20.5
2016-08-18T13:06:03.780Z,20.2
2016-08-18T13:07:03.785Z,19.9
2016-08-18T13:08:03.792Z,20.19
2016-08-18T13:09:03.089Z,19.5
2016-08-18T13:10:03.802Z,20.6
2016-08-18T13:11:03.101Z,22.96
2016-08-18T13:12:03.113Z,22.77
2016-08-18T13:13:03.115Z,21.69
2016-08-18T13:14:03.123Z,19.52
2016-08-18T13:15:03.834Z,19.13
2016-08-18T13:16:03.133Z,20.2
2016-08-18T13:17:03.847Z,20.11
2016-08-18T13:18:03.147Z,20.9
2016-08-18T13:19:03.150Z,21.2
2016-08-18T13:20:03.158Z,20.01
2016-08-18T13:21:03.161Z,20.41
2016-08-18T13:22:03.171Z,20.4
2016-08-18T13:23:03.176Z,20.99
2016-08-18T13:24:03.179Z,20.6
2016-08-18T13:25:03.187Z,19.21
2016-08-18T13:26:03.897Z,20.29
2016-08-18T13:27:03.198Z,21.77
2016-08-18T13:28:03.204Z,20.59
2016-08-18T13:29:03.913Z,20.19
2016-08-18T13:30:03.916Z,19.7
2016-08-18T13:31:03.934Z,20.29
2016-08-18T13:32:03.930Z,20.39
2016-08-18T13:33:03.938Z,20
2016-08-18T13:34:03.235Z,20.09
2016-08-18T13:35:03.947Z,21.68
2016-08-18T13:36:03.246Z,19.21
2016-08-18T13:37:03.958Z,18.62
2016-08-18T13:38:03.255Z,21.46
2016-08-18T13:39:03.973Z,19.79
2016-08-18T13:40:03.266Z,20.28
2016-08-18T13:41:03.275Z,19.31
2016-08-18T13:42:03.283Z,19.11
2016-08-18T13:43:03.288Z,18.12
2016-08-18T13:44:03.998Z,17.64
2016-08-18T13:45:03.301Z,18.04
2016-08-18T13:46:04.011Z,19.21
2016-08-18T13:47:04.015Z,19.5
2016-08-18T13:48:03.314Z,18.91
2016-08-18T13:49:03.318Z,18.42
2016-08-18T13:50:03.323Z,19.69
2016-08-18T13:51:04.037Z,22.14
2016-08-18T13:52:03.336Z,21.36
2016-08-18T13:53:03.342Z,20.57
2016-08-18T13:54:04.052Z,20.86
2016-08-18T13:55:03.353Z,19.98
2016-08-18T13:56:03.355Z,22.45
2016-08-18T13:57:03.363Z,21.95
2016-08-18T13:58:04.072Z,21.06
2016-08-18T13:59:04.081Z,22.14
2016-08-18T14:00:04.084Z,21.36
2016-08-18T14:01:03.381Z,20.57
2016-08-18T14:02:03.386Z,20.09
2016-08-18T14:03:04.118Z,20.87
2016-08-18T14:04:03.406Z,20.57
2016-08-18T14:05:04.115Z,21.26
2016-08-18T14:06:03.408Z,20.76
2016-08-18T14:07:03.412Z,21.26
2016-08-18T14:08:03.429Z,19.78
2016-08-18T14:09:03.425Z,20.86
2016-08-18T14:10:04.147Z,21.55
2016-08-18T14:11:04.150Z,20.57
2016-08-18T14:12:04.158Z,20.95
2016-08-18T14:13:04.157Z,20.65
2016-08-18T14:14:03.460Z,20.75
2016-08-18T14:15:04.166Z,20.95